Ansonia, Ohio
Current Conditions -  °F | °C
As of 4:35 PM on Monday 24 Nov 2014 (Local Time) from KVES Reporting Station
Overcast Overcast  
Wind Chill: 31°   Ceiling: 2000
Heat Index: 41°   Visibility: 10mi
Dew Point: 36°   Wind: 23mph
Humidity: 81%   Direction: 240°WSW
Pressure: 29.65"   Gusts: 32mph
Location:  40.21°N, 84.64°W
Report Text: KVES 242135Z AUTO 24020G28KT 10SM OVC020 05/02 A2965 RMK AO2
Loading
Personal Weather Stations






























Interactive Weather Map New forecast layout! Learn more

10-Day Weather Forecast

Advertisements
Track Severe Weather on mobile